sensor_id;sensor_type;location;lat;lon;timestamp;P1;durP1;ratioP1;P2;durP2;ratioP2
55300;SDS011;58302;51.446;-2.000;2022-12-07T00:01:11;84.95;;;36.25;;
55300;SDS011;58302;51.446;-2.000;2022-12-07T00:03:39;95.15;;;39.17;;
55300;SDS011;58302;51.446;-2.000;2022-12-07T00:06:06;71.80;;;33.30;;
55300;SDS011;58302;51.446;-2.000;2022-12-07T00:08:34;76.35;;;36.83;;
55300;SDS011;58302;51.446;-2.000;2022-12-07T00:11:04;72.20;;;35.35;;
55300;SDS011;58302;51.446;-2.000;2022-12-07T00:13:32;80.20;;;37.00;;
55300;SDS011;58302;51.446;-2.000;2022-12-07T00:16:03;78.35;;;37.03;;
55300;SDS011;58302;51.446;-2.000;2022-12-07T00:18:30;79.60;;;37.33;;
55300;SDS011;58302;51.446;-2.000;2022-12-07T00:21:00;64.63;;;34.53;;
55300;SDS011;58302;51.446;-2.000;2022-12-07T00:23:26;53.17;;;28.33;;
55300;SDS011;58302;51.446;-2.000;2022-12-07T00:25:52;63.15;;;29.13;;
55300;SDS011;58302;51.446;-2.000;2022-12-07T00:28:18;53.88;;;28.83;;
55300;SDS011;58302;51.446;-2.000;2022-12-07T00:30:44;56.72;;;27.65;;
55300;SDS011;58302;51.446;-2.000;2022-12-07T00:33:10;53.42;;;27.15;;
55300;SDS011;58302;51.446;-2.000;2022-12-07T00:35:36;45.05;;;27.10;;
55300;SDS011;58302;51.446;-2.000;2022-12-07T00:38:02;53.95;;;28.33;;
55300;SDS011;58302;51.446;-2.000;2022-12-07T00:40:28;50.53;;;26.77;;
55300;SDS011;58302;51.446;-2.000;2022-12-07T00:42:54;59.13;;;28.25;;
55300;SDS011;58302;51.446;-2.000;2022-12-07T00:45:20;52.40;;;28.05;;
55300;SDS011;58302;51.446;-2.000;2022-12-07T00:47:46;57.28;;;30.35;;
55300;SDS011;58302;51.446;-2.000;2022-12-07T00:50:12;67.55;;;32.53;;
55300;SDS011;58302;51.446;-2.000;2022-12-07T00:52:38;72.75;;;32.92;;
55300;SDS011;58302;51.446;-2.000;2022-12-07T00:55:04;82.68;;;35.63;;
55300;SDS011;58302;51.446;-2.000;2022-12-07T00:57:30;96.15;;;38.60;;
55300;SDS011;58302;51.446;-2.000;2022-12-07T00:59:56;77.75;;;35.90;;
55300;SDS011;58302;51.446;-2.000;2022-12-07T01:02:23;79.82;;;34.45;;
55300;SDS011;58302;51.446;-2.000;2022-12-07T01:04:49;101.35;;;40.33;;
55300;SDS011;58302;51.446;-2.000;2022-12-07T01:07:15;76.30;;;37.15;;
55300;SDS011;58302;51.446;-2.000;2022-12-07T01:09:41;83.15;;;36.95;;
55300;SDS011;58302;51.446;-2.000;2022-12-07T01:12:07;90.40;;;38.92;;
55300;SDS011;58302;51.446;-2.000;2022-12-07T01:14:33;111.65;;;45.05;;
55300;SDS011;58302;51.446;-2.000;2022-12-07T01:16:59;98.15;;;40.95;;
55300;SDS011;58302;51.446;-2.000;2022-12-07T01:19:24;88.78;;;40.20;;
55300;SDS011;58302;51.446;-2.000;2022-12-07T01:21:50;98.93;;;39.42;;
55300;SDS011;58302;51.446;-2.000;2022-12-07T01:24:16;85.28;;;37.08;;
55300;SDS011;58302;51.446;-2.000;2022-12-07T01:26:42;89.40;;;40.17;;
55300;SDS011;58302;51.446;-2.000;2022-12-07T01:29:08;109.07;;;40.83;;
55300;SDS011;58302;51.446;-2.000;2022-12-07T01:31:34;96.25;;;39.40;;
55300;SDS011;58302;51.446;-2.000;2022-12-07T01:34:00;86.30;;;37.13;;
55300;SDS011;58302;51.446;-2.000;2022-12-07T01:36:28;97.10;;;40.63;;
55300;SDS011;58302;51.446;-2.000;2022-12-07T01:38:57;87.07;;;40.20;;
55300;SDS011;58302;51.446;-2.000;2022-12-07T01:41:25;95.43;;;39.08;;
55300;SDS011;58302;51.446;-2.000;2022-12-07T01:46:38;88.43;;;41.65;;
55300;SDS011;58302;51.446;-2.000;2022-12-07T01:49:05;94.03;;;41.25;;
55300;SDS011;58302;51.446;-2.000;2022-12-07T01:51:34;91.22;;;41.95;;
55300;SDS011;58302;51.446;-2.000;2022-12-07T01:54:00;114.40;;;45.88;;
55300;SDS011;58302;51.446;-2.000;2022-12-07T01:56:27;113.45;;;46.35;;
55300;SDS011;58302;51.446;-2.000;2022-12-07T01:58:55;90.53;;;42.65;;
55300;SDS011;58302;51.446;-2.000;2022-12-07T02:01:22;85.05;;;39.03;;
55300;SDS011;58302;51.446;-2.000;2022-12-07T02:03:48;88.40;;;39.72;;
55300;SDS011;58302;51.446;-2.000;2022-12-07T02:06:16;110.72;;;45.13;;
55300;SDS011;58302;51.446;-2.000;2022-12-07T02:08:46;80.35;;;39.22;;
55300;SDS011;58302;51.446;-2.000;2022-12-07T02:11:12;87.30;;;39.13;;
55300;SDS011;58302;51.446;-2.000;2022-12-07T02:13:39;101.78;;;44.67;;
55300;SDS011;58302;51.446;-2.000;2022-12-07T02:16:15;109.20;;;46.88;;
55300;SDS011;58302;51.446;-2.000;2022-12-07T02:24:31;134.52;;;52.97;;
55300;SDS011;58302;51.446;-2.000;2022-12-07T02:32:38;118.30;;;44.87;;
55300;SDS011;58302;51.446;-2.000;2022-12-07T02:35:35;135.38;;;51.65;;
55300;SDS011;58302;51.446;-2.000;2022-12-07T02:41:10;105.10;;;44.30;;
55300;SDS011;58302;51.446;-2.000;2022-12-07T02:43:43;84.95;;;39.00;;
55300;SDS011;58302;51.446;-2.000;2022-12-07T02:46:14;87.07;;;37.78;;
55300;SDS011;58302;51.446;-2.000;2022-12-07T02:48:44;96.80;;;41.45;;
55300;SDS011;58302;51.446;-2.000;2022-12-07T02:51:11;100.15;;;41.88;;
55300;SDS011;58302;51.446;-2.000;2022-12-07T02:53:38;109.50;;;43.90;;
55300;SDS011;58302;51.446;-2.000;2022-12-07T02:56:24;101.40;;;43.63;;
55300;SDS011;58302;51.446;-2.000;2022-12-07T03:04:45;81.17;;;36.83;;
55300;SDS011;58302;51.446;-2.000;2022-12-07T03:12:51;87.63;;;38.05;;
55300;SDS011;58302;51.446;-2.000;2022-12-07T03:15:27;108.47;;;43.43;;
55300;SDS011;58302;51.446;-2.000;2022-12-07T03:17:58;100.40;;;40.95;;
55300;SDS011;58302;51.446;-2.000;2022-12-07T03:20:26;120.80;;;47.97;;
55300;SDS011;58302;51.446;-2.000;2022-12-07T03:22:54;94.68;;;40.53;;
55300;SDS011;58302;51.446;-2.000;2022-12-07T03:25:21;110.50;;;45.63;;
55300;SDS011;58302;51.446;-2.000;2022-12-07T03:27:53;99.97;;;42.37;;
55300;SDS011;58302;51.446;-2.000;2022-12-07T03:30:23;118.90;;;49.70;;
55300;SDS011;58302;51.446;-2.000;2022-12-07T03:32:56;139.60;;;53.27;;
55300;SDS011;58302;51.446;-2.000;2022-12-07T03:35:29;136.07;;;50.87;;
55300;SDS011;58302;51.446;-2.000;2022-12-07T03:38:06;115.15;;;46.42;;
55300;SDS011;58302;51.446;-2.000;2022-12-07T03:40:50;102.07;;;45.00;;
55300;SDS011;58302;51.446;-2.000;2022-12-07T03:43:20;124.93;;;49.07;;
55300;SDS011;58302;51.446;-2.000;2022-12-07T03:49:08;118.70;;;48.95;;
55300;SDS011;58302;51.446;-2.000;2022-12-07T03:52:04;113.85;;;45.90;;
55300;SDS011;58302;51.446;-2.000;2022-12-07T03:54:58;111.72;;;45.92;;
55300;SDS011;58302;51.446;-2.000;2022-12-07T03:57:28;88.18;;;40.90;;
55300;SDS011;58302;51.446;-2.000;2022-12-07T03:59:56;73.78;;;38.30;;
55300;SDS011;58302;51.446;-2.000;2022-12-07T04:02:23;82.20;;;39.10;;
55300;SDS011;58302;51.446;-2.000;2022-12-07T04:04:52;93.20;;;38.70;;
55300;SDS011;58302;51.446;-2.000;2022-12-07T04:07:18;92.50;;;39.88;;
55300;SDS011;58302;51.446;-2.000;2022-12-07T04:09:44;76.97;;;38.00;;
55300;SDS011;58302;51.446;-2.000;2022-12-07T04:12:10;70.30;;;37.25;;
55300;SDS011;58302;51.446;-2.000;2022-12-07T04:14:36;88.22;;;38.63;;
55300;SDS011;58302;51.446;-2.000;2022-12-07T04:17:02;76.38;;;34.70;;
55300;SDS011;58302;51.446;-2.000;2022-12-07T04:19:30;72.20;;;36.03;;
55300;SDS011;58302;51.446;-2.000;2022-12-07T04:21:58;97.80;;;39.70;;
55300;SDS011;58302;51.446;-2.000;2022-12-07T04:24:25;99.00;;;41.15;;
55300;SDS011;58302;51.446;-2.000;2022-12-07T04:26:51;94.23;;;42.00;;
55300;SDS011;58302;51.446;-2.000;2022-12-07T04:29:17;113.37;;;44.67;;
55300;SDS011;58302;51.446;-2.000;2022-12-07T04:31:44;114.70;;;44.28;;
55300;SDS011;58302;51.446;-2.000;2022-12-07T04:34:10;119.93;;;48.63;;
55300;SDS011;58302;51.446;-2.000;2022-12-07T04:36:37;126.82;;;50.97;;
55300;SDS011;58302;51.446;-2.000;2022-12-07T04:39:04;103.20;;;42.38;;
55300;SDS011;58302;51.446;-2.000;2022-12-07T04:41:31;128.02;;;50.33;;
55300;SDS011;58302;51.446;-2.000;2022-12-07T04:44:00;121.23;;;46.53;;
55300;SDS011;58302;51.446;-2.000;2022-12-07T04:46:28;100.37;;;40.47;;
55300;SDS011;58302;51.446;-2.000;2022-12-07T04:48:55;103.03;;;42.60;;
55300;SDS011;58302;51.446;-2.000;2022-12-07T04:51:23;100.47;;;40.57;;
55300;SDS011;58302;51.446;-2.000;2022-12-07T04:53:50;85.07;;;36.60;;
55300;SDS011;58302;51.446;-2.000;2022-12-07T04:56:17;86.73;;;39.90;;
55300;SDS011;58302;51.446;-2.000;2022-12-07T04:58:44;93.40;;;41.58;;
55300;SDS011;58302;51.446;-2.000;2022-12-07T05:01:12;105.73;;;44.00;;
55300;SDS011;58302;51.446;-2.000;2022-12-07T05:03:39;109.30;;;46.45;;
55300;SDS011;58302;51.446;-2.000;2022-12-07T05:06:05;95.43;;;42.80;;
55300;SDS011;58302;51.446;-2.000;2022-12-07T05:08:32;85.50;;;41.20;;
55300;SDS011;58302;51.446;-2.000;2022-12-07T05:10:59;83.07;;;41.40;;
55300;SDS011;58302;51.446;-2.000;2022-12-07T05:13:25;90.75;;;39.97;;
55300;SDS011;58302;51.446;-2.000;2022-12-07T05:15:52;76.35;;;39.70;;
55300;SDS011;58302;51.446;-2.000;2022-12-07T05:18:18;79.88;;;38.53;;
55300;SDS011;58302;51.446;-2.000;2022-12-07T05:20:44;76.28;;;39.35;;
55300;SDS011;58302;51.446;-2.000;2022-12-07T05:23:10;96.75;;;39.58;;
55300;SDS011;58302;51.446;-2.000;2022-12-07T05:25:37;98.38;;;40.15;;
55300;SDS011;58302;51.446;-2.000;2022-12-07T05:28:03;85.35;;;39.97;;
55300;SDS011;58302;51.446;-2.000;2022-12-07T05:30:30;85.40;;;42.07;;
55300;SDS011;58302;51.446;-2.000;2022-12-07T05:32:56;87.95;;;41.83;;
55300;SDS011;58302;51.446;-2.000;2022-12-07T05:35:23;91.18;;;38.95;;
55300;SDS011;58302;51.446;-2.000;2022-12-07T05:37:49;93.63;;;39.15;;
55300;SDS011;58302;51.446;-2.000;2022-12-07T05:40:15;79.30;;;36.72;;
55300;SDS011;58302;51.446;-2.000;2022-12-07T05:42:42;57.90;;;32.38;;
55300;SDS011;58302;51.446;-2.000;2022-12-07T05:45:08;79.07;;;35.90;;
55300;SDS011;58302;51.446;-2.000;2022-12-07T05:47:35;69.53;;;34.80;;
55300;SDS011;58302;51.446;-2.000;2022-12-07T05:50:01;62.07;;;31.57;;
55300;SDS011;58302;51.446;-2.000;2022-12-07T05:52:28;61.65;;;31.30;;
55300;SDS011;58302;51.446;-2.000;2022-12-07T05:54:54;63.15;;;31.90;;
55300;SDS011;58302;51.446;-2.000;2022-12-07T05:57:20;68.85;;;35.05;;
55300;SDS011;58302;51.446;-2.000;2022-12-07T05:59:46;82.47;;;35.45;;
55300;SDS011;58302;51.446;-2.000;2022-12-07T06:02:13;72.97;;;34.33;;
55300;SDS011;58302;51.446;-2.000;2022-12-07T06:04:41;73.35;;;34.45;;
55300;SDS011;58302;51.446;-2.000;2022-12-07T06:07:09;75.60;;;36.67;;
55300;SDS011;58302;51.446;-2.000;2022-12-07T06:09:36;78.28;;;35.08;;
55300;SDS011;58302;51.446;-2.000;2022-12-07T06:12:03;83.68;;;37.72;;
55300;SDS011;58302;51.446;-2.000;2022-12-07T06:14:48;78.88;;;35.33;;
55300;SDS011;58302;51.446;-2.000;2022-12-07T06:17:14;77.43;;;36.47;;
55300;SDS011;58302;51.446;-2.000;2022-12-07T06:19:40;97.75;;;38.78;;
55300;SDS011;58302;51.446;-2.000;2022-12-07T06:22:07;76.32;;;33.80;;
55300;SDS011;58302;51.446;-2.000;2022-12-07T06:24:34;95.05;;;37.08;;
55300;SDS011;58302;51.446;-2.000;2022-12-07T06:27:01;105.05;;;45.13;;
55300;SDS011;58302;51.446;-2.000;2022-12-07T06:29:27;89.40;;;39.88;;
55300;SDS011;58302;51.446;-2.000;2022-12-07T06:31:53;88.60;;;40.17;;
55300;SDS011;58302;51.446;-2.000;2022-12-07T06:34:20;108.53;;;42.88;;
55300;SDS011;58302;51.446;-2.000;2022-12-07T06:36:48;114.93;;;48.10;;
55300;SDS011;58302;51.446;-2.000;2022-12-07T06:39:17;99.40;;;46.40;;
55300;SDS011;58302;51.446;-2.000;2022-12-07T06:41:44;79.35;;;35.45;;
55300;SDS011;58302;51.446;-2.000;2022-12-07T06:44:10;98.00;;;42.47;;
55300;SDS011;58302;51.446;-2.000;2022-12-07T06:46:36;113.13;;;49.17;;
55300;SDS011;58302;51.446;-2.000;2022-12-07T06:49:03;114.63;;;47.53;;
55300;SDS011;58302;51.446;-2.000;2022-12-07T06:51:30;106.80;;;46.03;;
55300;SDS011;58302;51.446;-2.000;2022-12-07T06:53:57;98.40;;;42.75;;
55300;SDS011;58302;51.446;-2.000;2022-12-07T06:56:23;107.37;;;44.27;;
55300;SDS011;58302;51.446;-2.000;2022-12-07T06:58:49;109.20;;;49.70;;
55300;SDS011;58302;51.446;-2.000;2022-12-07T07:01:16;132.90;;;54.93;;
55300;SDS011;58302;51.446;-2.000;2022-12-07T07:03:44;130.80;;;54.63;;
55300;SDS011;58302;51.446;-2.000;2022-12-07T07:06:11;146.40;;;58.27;;
55300;SDS011;58302;51.446;-2.000;2022-12-07T07:08:38;149.43;;;58.07;;
55300;SDS011;58302;51.446;-2.000;2022-12-07T07:11:06;137.83;;;52.07;;
55300;SDS011;58302;51.446;-2.000;2022-12-07T07:13:32;116.87;;;47.57;;
55300;SDS011;58302;51.446;-2.000;2022-12-07T07:15:59;111.07;;;44.73;;
55300;SDS011;58302;51.446;-2.000;2022-12-07T07:18:25;108.30;;;43.57;;
55300;SDS011;58302;51.446;-2.000;2022-12-07T07:20:51;98.50;;;44.13;;
55300;SDS011;58302;51.446;-2.000;2022-12-07T07:23:18;109.93;;;47.20;;
55300;SDS011;58302;51.446;-2.000;2022-12-07T07:25:45;108.18;;;46.80;;
55300;SDS011;58302;51.446;-2.000;2022-12-07T07:28:11;118.78;;;47.80;;
55300;SDS011;58302;51.446;-2.000;2022-12-07T07:30:37;126.63;;;48.23;;
55300;SDS011;58302;51.446;-2.000;2022-12-07T07:33:03;122.40;;;50.87;;
55300;SDS011;58302;51.446;-2.000;2022-12-07T07:35:30;124.60;;;49.67;;
55300;SDS011;58302;51.446;-2.000;2022-12-07T07:37:57;135.47;;;53.50;;
55300;SDS011;58302;51.446;-2.000;2022-12-07T07:40:24;133.93;;;53.90;;
55300;SDS011;58302;51.446;-2.000;2022-12-07T07:42:51;133.37;;;53.93;;
55300;SDS011;58302;51.446;-2.000;2022-12-07T07:45:19;112.93;;;50.22;;
55300;SDS011;58302;51.446;-2.000;2022-12-07T07:47:45;115.75;;;49.88;;
55300;SDS011;58302;51.446;-2.000;2022-12-07T07:50:11;114.17;;;50.17;;
55300;SDS011;58302;51.446;-2.000;2022-12-07T07:52:37;120.93;;;51.88;;
55300;SDS011;58302;51.446;-2.000;2022-12-07T07:55:04;111.43;;;47.93;;
55300;SDS011;58302;51.446;-2.000;2022-12-07T07:57:30;117.93;;;47.70;;
55300;SDS011;58302;51.446;-2.000;2022-12-07T07:59:56;124.27;;;49.67;;
55300;SDS011;58302;51.446;-2.000;2022-12-07T08:02:22;102.97;;;44.83;;
55300;SDS011;58302;51.446;-2.000;2022-12-07T08:04:48;100.80;;;40.03;;
55300;SDS011;58302;51.446;-2.000;2022-12-07T08:07:14;97.53;;;42.13;;
55300;SDS011;58302;51.446;-2.000;2022-12-07T08:09:41;99.13;;;43.83;;
55300;SDS011;58302;51.446;-2.000;2022-12-07T08:12:07;103.82;;;43.70;;
55300;SDS011;58302;51.446;-2.000;2022-12-07T08:14:33;101.53;;;44.17;;
55300;SDS011;58302;51.446;-2.000;2022-12-07T08:16:59;96.40;;;43.67;;
55300;SDS011;58302;51.446;-2.000;2022-12-07T08:19:26;137.57;;;54.85;;
55300;SDS011;58302;51.446;-2.000;2022-12-07T08:21:51;121.90;;;51.20;;
55300;SDS011;58302;51.446;-2.000;2022-12-07T08:24:18;87.73;;;42.90;;
55300;SDS011;58302;51.446;-2.000;2022-12-07T08:26:44;95.07;;;45.47;;
55300;SDS011;58302;51.446;-2.000;2022-12-07T08:29:10;79.60;;;36.07;;
55300;SDS011;58302;51.446;-2.000;2022-12-07T08:31:36;67.60;;;33.05;;
55300;SDS011;58302;51.446;-2.000;2022-12-07T08:34:02;60.33;;;30.25;;
55300;SDS011;58302;51.446;-2.000;2022-12-07T08:36:28;59.60;;;31.13;;
55300;SDS011;58302;51.446;-2.000;2022-12-07T08:38:54;55.92;;;32.05;;
55300;SDS011;58302;51.446;-2.000;2022-12-07T08:41:20;67.70;;;32.22;;
55300;SDS011;58302;51.446;-2.000;2022-12-07T08:43:46;53.58;;;28.30;;
55300;SDS011;58302;51.446;-2.000;2022-12-07T08:49:01;55.65;;;27.80;;
55300;SDS011;58302;51.446;-2.000;2022-12-07T08:51:30;67.45;;;34.25;;
55300;SDS011;58302;51.446;-2.000;2022-12-07T08:53:56;57.63;;;31.60;;
55300;SDS011;58302;51.446;-2.000;2022-12-07T08:56:26;58.45;;;29.48;;
55300;SDS011;58302;51.446;-2.000;2022-12-07T08:58:52;75.70;;;32.17;;
55300;SDS011;58302;51.446;-2.000;2022-12-07T09:01:18;60.15;;;31.13;;
55300;SDS011;58302;51.446;-2.000;2022-12-07T09:03:44;59.22;;;30.63;;
55300;SDS011;58302;51.446;-2.000;2022-12-07T09:06:10;58.63;;;29.20;;
55300;SDS011;58302;51.446;-2.000;2022-12-07T09:08:37;56.80;;;26.85;;
55300;SDS011;58302;51.446;-2.000;2022-12-07T09:11:08;59.03;;;28.30;;
55300;SDS011;58302;51.446;-2.000;2022-12-07T09:13:34;50.95;;;26.08;;
55300;SDS011;58302;51.446;-2.000;2022-12-07T09:15:59;52.42;;;26.13;;
55300;SDS011;58302;51.446;-2.000;2022-12-07T09:18:26;49.08;;;25.33;;
55300;SDS011;58302;51.446;-2.000;2022-12-07T09:20:52;50.97;;;25.75;;
55300;SDS011;58302;51.446;-2.000;2022-12-07T09:23:18;51.40;;;27.75;;
55300;SDS011;58302;51.446;-2.000;2022-12-07T09:25:44;61.05;;;32.33;;
55300;SDS011;58302;51.446;-2.000;2022-12-07T09:28:10;55.38;;;29.77;;
55300;SDS011;58302;51.446;-2.000;2022-12-07T09:30:36;52.45;;;29.42;;
55300;SDS011;58302;51.446;-2.000;2022-12-07T09:33:02;55.00;;;29.17;;
55300;SDS011;58302;51.446;-2.000;2022-12-07T09:35:29;57.53;;;31.05;;
55300;SDS011;58302;51.446;-2.000;2022-12-07T09:37:55;43.22;;;26.23;;
55300;SDS011;58302;51.446;-2.000;2022-12-07T09:40:21;153.85;;;73.10;;
55300;SDS011;58302;51.446;-2.000;2022-12-07T09:42:49;85.60;;;49.85;;
55300;SDS011;58302;51.446;-2.000;2022-12-07T09:45:33;115.00;;;80.13;;
55300;SDS011;58302;51.446;-2.000;2022-12-07T09:48:02;67.55;;;44.10;;
55300;SDS011;58302;51.446;-2.000;2022-12-07T09:50:29;46.13;;;23.73;;
55300;SDS011;58302;51.446;-2.000;2022-12-07T09:53:01;60.60;;;33.58;;
55300;SDS011;58302;51.446;-2.000;2022-12-07T09:55:41;64.40;;;31.75;;
55300;SDS011;58302;51.446;-2.000;2022-12-07T09:58:12;57.00;;;28.75;;
55300;SDS011;58302;51.446;-2.000;2022-12-07T10:00:46;116.45;;;69.32;;
55300;SDS011;58302;51.446;-2.000;2022-12-07T10:03:12;74.72;;;46.83;;
55300;SDS011;58302;51.446;-2.000;2022-12-07T10:05:40;90.65;;;57.00;;
55300;SDS011;58302;51.446;-2.000;2022-12-07T10:08:10;22.88;;;15.98;;
55300;SDS011;58302;51.446;-2.000;2022-12-07T10:10:37;27.83;;;17.92;;
55300;SDS011;58302;51.446;-2.000;2022-12-07T10:13:08;23.08;;;15.73;;
55300;SDS011;58302;51.446;-2.000;2022-12-07T10:18:33;37.08;;;24.77;;
55300;SDS011;58302;51.446;-2.000;2022-12-07T10:23:27;28.95;;;18.85;;
55300;SDS011;58302;51.446;-2.000;2022-12-07T10:25:54;186.80;;;99.90;;
55300;SDS011;58302;51.446;-2.000;2022-12-07T10:28:20;47.38;;;29.30;;
55300;SDS011;58302;51.446;-2.000;2022-12-07T10:36:01;34.15;;;20.85;;
55300;SDS011;58302;51.446;-2.000;2022-12-07T10:38:50;35.42;;;24.52;;
55300;SDS011;58302;51.446;-2.000;2022-12-07T10:41:28;27.48;;;19.23;;
55300;SDS011;58302;51.446;-2.000;2022-12-07T10:43:56;25.90;;;19.95;;
55300;SDS011;58302;51.446;-2.000;2022-12-07T10:49:17;24.65;;;16.38;;
55300;SDS011;58302;51.446;-2.000;2022-12-07T10:57:30;14.65;;;10.90;;
55300;SDS011;58302;51.446;-2.000;2022-12-07T11:00:17;15.70;;;11.00;;
55300;SDS011;58302;51.446;-2.000;2022-12-07T11:08:12;10.55;;;7.57;;
55300;SDS011;58302;51.446;-2.000;2022-12-07T11:10:52;14.00;;;8.77;;
55300;SDS011;58302;51.446;-2.000;2022-12-07T11:21:48;9.68;;;6.07;;
55300;SDS011;58302;51.446;-2.000;2022-12-07T11:38:14;9.25;;;6.82;;
55300;SDS011;58302;51.446;-2.000;2022-12-07T11:40:48;12.07;;;7.07;;
55300;SDS011;58302;51.446;-2.000;2022-12-07T11:43:27;12.30;;;7.80;;
55300;SDS011;58302;51.446;-2.000;2022-12-07T11:46:04;22.45;;;13.57;;
55300;SDS011;58302;51.446;-2.000;2022-12-07T11:48:38;13.38;;;8.60;;
55300;SDS011;58302;51.446;-2.000;2022-12-07T11:51:11;14.93;;;7.30;;
55300;SDS011;58302;51.446;-2.000;2022-12-07T11:53:43;9.75;;;6.82;;
55300;SDS011;58302;51.446;-2.000;2022-12-07T11:56:16;10.32;;;7.03;;
55300;SDS011;58302;51.446;-2.000;2022-12-07T12:06:36;11.88;;;7.03;;
55300;SDS011;58302;51.446;-2.000;2022-12-07T12:20:18;12.90;;;8.63;;
55300;SDS011;58302;51.446;-2.000;2022-12-07T12:23:10;12.68;;;8.00;;
55300;SDS011;58302;51.446;-2.000;2022-12-07T12:28:40;10.57;;;6.10;;
55300;SDS011;58302;51.446;-2.000;2022-12-07T12:31:12;14.52;;;7.50;;
55300;SDS011;58302;51.446;-2.000;2022-12-07T12:33:43;14.60;;;6.00;;
55300;SDS011;58302;51.446;-2.000;2022-12-07T12:44:01;6.80;;;3.40;;
55300;SDS011;58302;51.446;-2.000;2022-12-07T12:51:42;9.43;;;4.20;;
55300;SDS011;58302;51.446;-2.000;2022-12-07T12:54:14;11.75;;;4.55;;
55300;SDS011;58302;51.446;-2.000;2022-12-07T13:01:52;9.50;;;5.45;;
55300;SDS011;58302;51.446;-2.000;2022-12-07T13:04:25;7.65;;;4.55;;
55300;SDS011;58302;51.446;-2.000;2022-12-07T13:07:11;8.80;;;5.18;;
55300;SDS011;58302;51.446;-2.000;2022-12-07T13:09:38;12.65;;;4.75;;
55300;SDS011;58302;51.446;-2.000;2022-12-07T13:12:12;7.28;;;4.00;;
55300;SDS011;58302;51.446;-2.000;2022-12-07T13:14:41;8.73;;;4.97;;
55300;SDS011;58302;51.446;-2.000;2022-12-07T13:17:08;5.15;;;4.22;;
55300;SDS011;58302;51.446;-2.000;2022-12-07T13:24:56;6.90;;;4.57;;
55300;SDS011;58302;51.446;-2.000;2022-12-07T13:27:24;9.45;;;4.95;;
55300;SDS011;58302;51.446;-2.000;2022-12-07T13:29:52;4.60;;;3.88;;
55300;SDS011;58302;51.446;-2.000;2022-12-07T13:32:28;10.73;;;5.20;;
55300;SDS011;58302;51.446;-2.000;2022-12-07T13:34:55;8.88;;;5.25;;
55300;SDS011;58302;51.446;-2.000;2022-12-07T13:37:26;11.52;;;5.30;;
55300;SDS011;58302;51.446;-2.000;2022-12-07T13:39:57;13.93;;;4.85;;
55300;SDS011;58302;51.446;-2.000;2022-12-07T13:42:43;6.43;;;4.30;;
55300;SDS011;58302;51.446;-2.000;2022-12-07T13:45:22;5.70;;;4.00;;
55300;SDS011;58302;51.446;-2.000;2022-12-07T13:48:10;7.43;;;4.63;;
55300;SDS011;58302;51.446;-2.000;2022-12-07T13:50:41;7.82;;;4.80;;
55300;SDS011;58302;51.446;-2.000;2022-12-07T13:53:11;10.65;;;5.55;;
55300;SDS011;58302;51.446;-2.000;2022-12-07T13:55:44;8.18;;;4.82;;
55300;SDS011;58302;51.446;-2.000;2022-12-07T13:58:11;6.45;;;4.53;;
55300;SDS011;58302;51.446;-2.000;2022-12-07T14:00:39;9.38;;;5.53;;
55300;SDS011;58302;51.446;-2.000;2022-12-07T14:05:41;8.05;;;4.50;;
55300;SDS011;58302;51.446;-2.000;2022-12-07T14:10:36;8.80;;;5.20;;
55300;SDS011;58302;51.446;-2.000;2022-12-07T14:15:59;15.57;;;5.97;;
55300;SDS011;58302;51.446;-2.000;2022-12-07T14:18:28;13.43;;;6.55;;
55300;SDS011;58302;51.446;-2.000;2022-12-07T14:21:14;16.08;;;6.63;;
55300;SDS011;58302;51.446;-2.000;2022-12-07T14:23:40;9.88;;;5.93;;
55300;SDS011;58302;51.446;-2.000;2022-12-07T14:28:45;20.80;;;7.82;;
55300;SDS011;58302;51.446;-2.000;2022-12-07T14:31:13;13.55;;;8.27;;
55300;SDS011;58302;51.446;-2.000;2022-12-07T14:33:40;15.00;;;9.75;;
55300;SDS011;58302;51.446;-2.000;2022-12-07T14:36:13;13.32;;;8.32;;
55300;SDS011;58302;51.446;-2.000;2022-12-07T14:38:40;12.70;;;6.72;;
55300;SDS011;58302;51.446;-2.000;2022-12-07T14:41:06;10.65;;;6.32;;
55300;SDS011;58302;51.446;-2.000;2022-12-07T14:43:58;11.70;;;6.55;;
55300;SDS011;58302;51.446;-2.000;2022-12-07T14:46:24;13.80;;;6.82;;
55300;SDS011;58302;51.446;-2.000;2022-12-07T14:48:50;14.73;;;9.93;;
55300;SDS011;58302;51.446;-2.000;2022-12-07T14:51:15;14.52;;;10.13;;
55300;SDS011;58302;51.446;-2.000;2022-12-07T14:53:48;17.33;;;9.65;;
55300;SDS011;58302;51.446;-2.000;2022-12-07T14:56:17;14.27;;;8.20;;
55300;SDS011;58302;51.446;-2.000;2022-12-07T14:58:43;15.57;;;8.45;;
55300;SDS011;58302;51.446;-2.000;2022-12-07T15:01:09;14.38;;;7.28;;
55300;SDS011;58302;51.446;-2.000;2022-12-07T15:03:35;9.60;;;5.50;;
55300;SDS011;58302;51.446;-2.000;2022-12-07T15:06:03;12.75;;;6.15;;
55300;SDS011;58302;51.446;-2.000;2022-12-07T15:08:29;10.70;;;5.10;;
55300;SDS011;58302;51.446;-2.000;2022-12-07T15:10:55;12.57;;;5.65;;
55300;SDS011;58302;51.446;-2.000;2022-12-07T15:13:21;15.02;;;7.00;;
55300;SDS011;58302;51.446;-2.000;2022-12-07T15:16:16;12.88;;;5.55;;
55300;SDS011;58302;51.446;-2.000;2022-12-07T15:18:45;10.65;;;6.13;;
55300;SDS011;58302;51.446;-2.000;2022-12-07T15:21:14;12.20;;;6.75;;
55300;SDS011;58302;51.446;-2.000;2022-12-07T15:23:41;10.07;;;5.60;;
55300;SDS011;58302;51.446;-2.000;2022-12-07T15:26:07;15.70;;;8.43;;
55300;SDS011;58302;51.446;-2.000;2022-12-07T15:28:35;15.65;;;8.88;;
55300;SDS011;58302;51.446;-2.000;2022-12-07T15:31:01;17.42;;;8.75;;
55300;SDS011;58302;51.446;-2.000;2022-12-07T15:33:27;16.35;;;8.90;;
55300;SDS011;58302;51.446;-2.000;2022-12-07T15:35:53;21.75;;;11.45;;
55300;SDS011;58302;51.446;-2.000;2022-12-07T15:38:19;22.23;;;11.40;;
55300;SDS011;58302;51.446;-2.000;2022-12-07T15:40:48;26.40;;;9.35;;
55300;SDS011;58302;51.446;-2.000;2022-12-07T15:43:14;18.10;;;9.90;;
55300;SDS011;58302;51.446;-2.000;2022-12-07T15:45:58;22.88;;;10.13;;
55300;SDS011;58302;51.446;-2.000;2022-12-07T15:48:25;21.02;;;11.25;;
55300;SDS011;58302;51.446;-2.000;2022-12-07T15:50:51;20.63;;;10.85;;
55300;SDS011;58302;51.446;-2.000;2022-12-07T15:53:20;29.23;;;13.43;;
55300;SDS011;58302;51.446;-2.000;2022-12-07T15:55:46;38.00;;;19.13;;
55300;SDS011;58302;51.446;-2.000;2022-12-07T15:58:12;37.08;;;15.95;;
55300;SDS011;58302;51.446;-2.000;2022-12-07T16:00:38;33.13;;;14.75;;
55300;SDS011;58302;51.446;-2.000;2022-12-07T16:03:04;29.17;;;13.60;;
55300;SDS011;58302;51.446;-2.000;2022-12-07T16:05:30;28.05;;;15.15;;
55300;SDS011;58302;51.446;-2.000;2022-12-07T16:07:55;29.88;;;15.52;;
55300;SDS011;58302;51.446;-2.000;2022-12-07T16:10:21;30.45;;;16.40;;
55300;SDS011;58302;51.446;-2.000;2022-12-07T16:12:47;26.88;;;15.52;;
55300;SDS011;58302;51.446;-2.000;2022-12-07T16:15:13;37.88;;;17.30;;
55300;SDS011;58302;51.446;-2.000;2022-12-07T16:17:39;57.20;;;23.45;;
55300;SDS011;58302;51.446;-2.000;2022-12-07T16:20:05;37.80;;;19.80;;
55300;SDS011;58302;51.446;-2.000;2022-12-07T16:22:32;42.38;;;18.88;;
55300;SDS011;58302;51.446;-2.000;2022-12-07T16:24:57;41.80;;;20.02;;
55300;SDS011;58302;51.446;-2.000;2022-12-07T16:27:23;46.00;;;20.92;;
55300;SDS011;58302;51.446;-2.000;2022-12-07T16:29:49;42.63;;;19.98;;
55300;SDS011;58302;51.446;-2.000;2022-12-07T16:32:15;45.50;;;22.20;;
55300;SDS011;58302;51.446;-2.000;2022-12-07T16:34:41;46.55;;;22.27;;